sensor_id;sensor_type;location;lat;lon;timestamp;temperature;humidity
51815;DHT22;37874;53.158;6.766;2022-10-01T00:00:52;19.80;57.60
51815;DHT22;37874;53.158;6.766;2022-10-01T00:03:19;19.80;57.60
51815;DHT22;37874;53.158;6.766;2022-10-01T00:05:46;19.70;57.70
51815;DHT22;37874;53.158;6.766;2022-10-01T00:08:15;19.80;57.70
51815;DHT22;37874;53.158;6.766;2022-10-01T00:10:42;19.90;57.60
51815;DHT22;37874;53.158;6.766;2022-10-01T00:13:08;19.80;57.50
51815;DHT22;37874;53.158;6.766;2022-10-01T00:15:34;19.80;57.50
51815;DHT22;37874;53.158;6.766;2022-10-01T00:18:03;19.80;57.60
51815;DHT22;37874;53.158;6.766;2022-10-01T00:20:29;19.70;57.40
51815;DHT22;37874;53.158;6.766;2022-10-01T00:22:54;19.80;57.50
51815;DHT22;37874;53.158;6.766;2022-10-01T00:25:20;19.80;57.50
51815;DHT22;37874;53.158;6.766;2022-10-01T00:27:46;19.80;57.70
51815;DHT22;37874;53.158;6.766;2022-10-01T00:30:12;19.90;57.70
51815;DHT22;37874;53.158;6.766;2022-10-01T00:32:38;19.80;57.70
51815;DHT22;37874;53.158;6.766;2022-10-01T00:35:07;19.80;57.60
51815;DHT22;37874;53.158;6.766;2022-10-01T00:37:37;19.80;57.50
51815;DHT22;37874;53.158;6.766;2022-10-01T00:40:04;19.80;57.60
51815;DHT22;37874;53.158;6.766;2022-10-01T00:42:30;19.90;57.50
51815;DHT22;37874;53.158;6.766;2022-10-01T00:44:55;19.70;57.60
51815;DHT22;37874;53.158;6.766;2022-10-01T00:47:28;19.80;57.80
51815;DHT22;37874;53.158;6.766;2022-10-01T00:50:00;19.70;57.70
51815;DHT22;37874;53.158;6.766;2022-10-01T00:52:29;19.80;57.80
51815;DHT22;37874;53.158;6.766;2022-10-01T00:55:24;19.80;57.80
51815;DHT22;37874;53.158;6.766;2022-10-01T00:57:51;19.70;57.80
51815;DHT22;37874;53.158;6.766;2022-10-01T01:00:18;19.70;57.80
51815;DHT22;37874;53.158;6.766;2022-10-01T01:02:44;19.80;57.90
51815;DHT22;37874;53.158;6.766;2022-10-01T01:05:10;19.80;57.90
51815;DHT22;37874;53.158;6.766;2022-10-01T01:07:39;19.80;58.00
51815;DHT22;37874;53.158;6.766;2022-10-01T01:10:07;19.70;57.80
51815;DHT22;37874;53.158;6.766;2022-10-01T01:12:46;19.70;57.80
51815;DHT22;37874;53.158;6.766;2022-10-01T01:20:40;19.70;57.90
51815;DHT22;37874;53.158;6.766;2022-10-01T01:28:30;19.70;58.10
51815;DHT22;37874;53.158;6.766;2022-10-01T01:31:00;19.80;58.10
51815;DHT22;37874;53.158;6.766;2022-10-01T03:31:18;19.70;58.20
51815;DHT22;37874;53.158;6.766;2022-10-01T03:33:44;19.80;58.30
51815;DHT22;37874;53.158;6.766;2022-10-01T03:36:09;19.70;58.20
51815;DHT22;37874;53.158;6.766;2022-10-01T03:38:35;19.70;58.20
51815;DHT22;37874;53.158;6.766;2022-10-01T03:41:01;19.70;58.20
51815;DHT22;37874;53.158;6.766;2022-10-01T03:43:26;19.70;58.20
51815;DHT22;37874;53.158;6.766;2022-10-01T03:45:54;19.80;58.20
51815;DHT22;37874;53.158;6.766;2022-10-01T03:48:21;19.70;58.10
51815;DHT22;37874;53.158;6.766;2022-10-01T03:50:54;19.70;58.20
51815;DHT22;37874;53.158;6.766;2022-10-01T03:53:20;19.80;58.20
51815;DHT22;37874;53.158;6.766;2022-10-01T03:55:46;19.80;58.20
51815;DHT22;37874;53.158;6.766;2022-10-01T03:58:12;19.70;58.20
51815;DHT22;37874;53.158;6.766;2022-10-01T04:00:38;19.80;58.20
51815;DHT22;37874;53.158;6.766;2022-10-01T04:03:03;19.80;58.20
51815;DHT22;37874;53.158;6.766;2022-10-01T04:05:29;19.70;58.20
51815;DHT22;37874;53.158;6.766;2022-10-01T04:07:55;19.80;58.10
51815;DHT22;37874;53.158;6.766;2022-10-01T04:10:20;19.80;58.10
51815;DHT22;37874;53.158;6.766;2022-10-01T04:12:46;19.70;58.10
51815;DHT22;37874;53.158;6.766;2022-10-01T04:15:12;19.70;58.10
51815;DHT22;37874;53.158;6.766;2022-10-01T04:17:37;19.80;58.10
51815;DHT22;37874;53.158;6.766;2022-10-01T04:20:03;19.80;58.20
51815;DHT22;37874;53.158;6.766;2022-10-01T04:22:29;19.70;58.10
51815;DHT22;37874;53.158;6.766;2022-10-01T04:24:54;19.80;58.20
51815;DHT22;37874;53.158;6.766;2022-10-01T04:27:20;19.80;58.10
51815;DHT22;37874;53.158;6.766;2022-10-01T04:29:46;19.70;58.10
51815;DHT22;37874;53.158;6.766;2022-10-01T04:32:11;19.70;58.00
51815;DHT22;37874;53.158;6.766;2022-10-01T04:34:37;19.80;58.10
51815;DHT22;37874;53.158;6.766;2022-10-01T04:37:18;19.80;58.10
51815;DHT22;37874;53.158;6.766;2022-10-01T04:39:44;19.80;58.20
51815;DHT22;37874;53.158;6.766;2022-10-01T04:42:10;19.70;58.10
51815;DHT22;37874;53.158;6.766;2022-10-01T04:44:38;19.80;58.20
51815;DHT22;37874;53.158;6.766;2022-10-01T04:47:03;19.80;58.10
51815;DHT22;37874;53.158;6.766;2022-10-01T04:49:29;19.80;58.10
51815;DHT22;37874;53.158;6.766;2022-10-01T04:51:57;19.80;58.10
51815;DHT22;37874;53.158;6.766;2022-10-01T04:54:23;19.90;58.20
51815;DHT22;37874;53.158;6.766;2022-10-01T04:56:49;19.70;58.10
51815;DHT22;37874;53.158;6.766;2022-10-01T04:59:14;19.80;58.10
51815;DHT22;37874;53.158;6.766;2022-10-01T05:01:40;19.80;57.90
51815;DHT22;37874;53.158;6.766;2022-10-01T05:04:09;19.90;58.10
51815;DHT22;37874;53.158;6.766;2022-10-01T05:06:35;19.80;58.00
51815;DHT22;37874;53.158;6.766;2022-10-01T05:09:00;20.30;58.30
51815;DHT22;37874;53.158;6.766;2022-10-01T05:11:26;19.80;58.10
51815;DHT22;37874;53.158;6.766;2022-10-01T05:13:51;19.80;58.00
51815;DHT22;37874;53.158;6.766;2022-10-01T05:16:17;19.80;58.10
51815;DHT22;37874;53.158;6.766;2022-10-01T05:18:43;19.80;58.10
51815;DHT22;37874;53.158;6.766;2022-10-01T05:21:08;19.80;58.10
51815;DHT22;37874;53.158;6.766;2022-10-01T05:23:40;19.90;58.20
51815;DHT22;37874;53.158;6.766;2022-10-01T05:26:06;19.80;58.10
51815;DHT22;37874;53.158;6.766;2022-10-01T05:28:32;19.90;58.20
51815;DHT22;37874;53.158;6.766;2022-10-01T05:30:59;19.70;58.00
51815;DHT22;37874;53.158;6.766;2022-10-01T05:33:29;19.80;58.10
51815;DHT22;37874;53.158;6.766;2022-10-01T05:35:58;19.80;58.10
51815;DHT22;37874;53.158;6.766;2022-10-01T05:38:24;19.90;58.20
51815;DHT22;37874;53.158;6.766;2022-10-01T05:40:50;19.80;58.10
51815;DHT22;37874;53.158;6.766;2022-10-01T05:43:16;19.80;58.10
51815;DHT22;37874;53.158;6.766;2022-10-01T05:45:43;19.80;58.20
51815;DHT22;37874;53.158;6.766;2022-10-01T05:48:09;19.80;58.20
51815;DHT22;37874;53.158;6.766;2022-10-01T05:50:37;20.00;58.30
51815;DHT22;37874;53.158;6.766;2022-10-01T05:53:08;19.80;58.10
51815;DHT22;37874;53.158;6.766;2022-10-01T05:55:35;19.80;58.20
51815;DHT22;37874;53.158;6.766;2022-10-01T05:58:05;20.00;58.30
51815;DHT22;37874;53.158;6.766;2022-10-01T06:00:32;19.80;58.30
51815;DHT22;37874;53.158;6.766;2022-10-01T06:02:59;19.80;58.30
51815;DHT22;37874;53.158;6.766;2022-10-01T06:05:26;19.90;58.20
51815;DHT22;37874;53.158;6.766;2022-10-01T06:07:52;19.80;58.30
51815;DHT22;37874;53.158;6.766;2022-10-01T06:10:19;19.70;58.20
51815;DHT22;37874;53.158;6.766;2022-10-01T06:12:45;19.80;58.40
51815;DHT22;37874;53.158;6.766;2022-10-01T06:15:11;19.70;58.30
51815;DHT22;37874;53.158;6.766;2022-10-01T06:17:37;19.80;58.40
51815;DHT22;37874;53.158;6.766;2022-10-01T06:20:14;19.70;58.40
51815;DHT22;37874;53.158;6.766;2022-10-01T06:22:40;19.70;58.40
51815;DHT22;37874;53.158;6.766;2022-10-01T06:25:10;19.70;59.00
51815;DHT22;37874;53.158;6.766;2022-10-01T06:27:37;19.80;58.50
51815;DHT22;37874;53.158;6.766;2022-10-01T06:30:03;19.70;58.50
51815;DHT22;37874;53.158;6.766;2022-10-01T06:32:29;19.70;58.60
51815;DHT22;37874;53.158;6.766;2022-10-01T06:34:55;19.80;58.60
51815;DHT22;37874;53.158;6.766;2022-10-01T06:37:21;19.70;58.60
51815;DHT22;37874;53.158;6.766;2022-10-01T06:39:46;19.70;58.60
51815;DHT22;37874;53.158;6.766;2022-10-01T06:42:12;19.70;58.60
51815;DHT22;37874;53.158;6.766;2022-10-01T06:44:38;19.70;58.70
51815;DHT22;37874;53.158;6.766;2022-10-01T06:47:03;19.70;58.70
51815;DHT22;37874;53.158;6.766;2022-10-01T06:49:29;19.70;58.60
51815;DHT22;37874;53.158;6.766;2022-10-01T06:51:54;19.70;58.70
51815;DHT22;37874;53.158;6.766;2022-10-01T06:54:39;19.70;58.70
51815;DHT22;37874;53.158;6.766;2022-10-01T06:57:04;19.80;58.70
51815;DHT22;37874;53.158;6.766;2022-10-01T06:59:30;19.80;58.70
51815;DHT22;37874;53.158;6.766;2022-10-01T07:01:55;19.80;58.80
51815;DHT22;37874;53.158;6.766;2022-10-01T07:04:21;19.70;58.70
51815;DHT22;37874;53.158;6.766;2022-10-01T07:06:47;19.70;58.70
51815;DHT22;37874;53.158;6.766;2022-10-01T07:09:12;19.70;58.70
51815;DHT22;37874;53.158;6.766;2022-10-01T07:11:38;19.70;58.70
51815;DHT22;37874;53.158;6.766;2022-10-01T07:14:06;19.80;58.80
51815;DHT22;37874;53.158;6.766;2022-10-01T07:16:32;19.80;58.80
51815;DHT22;37874;53.158;6.766;2022-10-01T07:18:58;19.80;58.80
51815;DHT22;37874;53.158;6.766;2022-10-01T07:21:24;19.80;58.80
51815;DHT22;37874;53.158;6.766;2022-10-01T07:23:50;19.80;58.80
51815;DHT22;37874;53.158;6.766;2022-10-01T07:26:15;19.80;58.80
51815;DHT22;37874;53.158;6.766;2022-10-01T07:28:41;19.80;58.80
51815;DHT22;37874;53.158;6.766;2022-10-01T07:31:09;19.80;58.80
51815;DHT22;37874;53.158;6.766;2022-10-01T07:33:36;19.80;58.80
51815;DHT22;37874;53.158;6.766;2022-10-01T07:36:05;19.80;58.80
51815;DHT22;37874;53.158;6.766;2022-10-01T07:38:31;19.80;58.90
51815;DHT22;37874;53.158;6.766;2022-10-01T07:40:58;19.80;58.90
51815;DHT22;37874;53.158;6.766;2022-10-01T07:43:24;19.90;59.00
51815;DHT22;37874;53.158;6.766;2022-10-01T07:45:50;19.80;59.00
51815;DHT22;37874;53.158;6.766;2022-10-01T07:48:19;19.80;58.90
51815;DHT22;37874;53.158;6.766;2022-10-01T07:50:45;19.80;59.00
51815;DHT22;37874;53.158;6.766;2022-10-01T07:53:11;19.80;59.00
51815;DHT22;37874;53.158;6.766;2022-10-01T07:55:37;19.80;59.00
51815;DHT22;37874;53.158;6.766;2022-10-01T07:58:03;19.80;59.00
51815;DHT22;37874;53.158;6.766;2022-10-01T08:00:31;19.80;59.00
51815;DHT22;37874;53.158;6.766;2022-10-01T08:02:57;19.90;59.10
51815;DHT22;37874;53.158;6.766;2022-10-01T08:05:31;19.80;59.10
51815;DHT22;37874;53.158;6.766;2022-10-01T08:08:05;19.80;59.10
51815;DHT22;37874;53.158;6.766;2022-10-01T08:10:32;19.80;59.10
51815;DHT22;37874;53.158;6.766;2022-10-01T08:13:15;19.80;59.10
51815;DHT22;37874;53.158;6.766;2022-10-01T08:15:43;20.00;59.20
51815;DHT22;37874;53.158;6.766;2022-10-01T08:18:09;19.80;59.10
51815;DHT22;37874;53.158;6.766;2022-10-01T08:20:36;19.80;59.10
51815;DHT22;37874;53.158;6.766;2022-10-01T08:23:04;19.80;59.10
51815;DHT22;37874;53.158;6.766;2022-10-01T08:25:30;19.80;59.10
51815;DHT22;37874;53.158;6.766;2022-10-01T08:27:56;19.80;59.10
51815;DHT22;37874;53.158;6.766;2022-10-01T08:30:22;19.80;59.10
51815;DHT22;37874;53.158;6.766;2022-10-01T08:32:53;19.90;59.10
51815;DHT22;37874;53.158;6.766;2022-10-01T08:35:19;19.80;59.10
51815;DHT22;37874;53.158;6.766;2022-10-01T08:37:44;19.80;59.10
51815;DHT22;37874;53.158;6.766;2022-10-01T08:40:10;19.90;59.10
51815;DHT22;37874;53.158;6.766;2022-10-01T08:42:53;19.80;59.10
51815;DHT22;37874;53.158;6.766;2022-10-01T08:45:26;19.90;59.20
51815;DHT22;37874;53.158;6.766;2022-10-01T08:48:11;19.80;59.10
51815;DHT22;37874;53.158;6.766;2022-10-01T08:50:48;19.90;59.30
51815;DHT22;37874;53.158;6.766;2022-10-01T08:53:28;19.90;59.20
51815;DHT22;37874;53.158;6.766;2022-10-01T08:55:55;19.90;59.20
51815;DHT22;37874;53.158;6.766;2022-10-01T08:58:25;19.90;59.20
51815;DHT22;37874;53.158;6.766;2022-10-01T09:00:53;19.90;59.20
51815;DHT22;37874;53.158;6.766;2022-10-01T09:03:19;19.90;59.30
51815;DHT22;37874;53.158;6.766;2022-10-01T09:06:34;20.60;59.80
51815;DHT22;37874;53.158;6.766;2022-10-01T09:14:30;19.90;59.20
51815;DHT22;37874;53.158;6.766;2022-10-01T09:17:04;19.90;59.30
51815;DHT22;37874;53.158;6.766;2022-10-01T09:21:59;19.90;59.30
51815;DHT22;37874;53.158;6.766;2022-10-01T09:24:42;19.90;59.30
51815;DHT22;37874;53.158;6.766;2022-10-01T09:27:22;19.90;59.40
51815;DHT22;37874;53.158;6.766;2022-10-01T09:29:55;19.90;59.40
51815;DHT22;37874;53.158;6.766;2022-10-01T09:32:27;19.90;59.50
51815;DHT22;37874;53.158;6.766;2022-10-01T09:34:56;20.00;59.50
51815;DHT22;37874;53.158;6.766;2022-10-01T09:37:43;19.90;59.50
51815;DHT22;37874;53.158;6.766;2022-10-01T09:40:32;20.00;59.60
51815;DHT22;37874;53.158;6.766;2022-10-01T09:42:59;20.00;59.60
51815;DHT22;37874;53.158;6.766;2022-10-01T09:45:25;20.00;59.60
51815;DHT22;37874;53.158;6.766;2022-10-01T09:47:53;20.00;59.60
51815;DHT22;37874;53.158;6.766;2022-10-01T09:50:33;20.00;59.60
51815;DHT22;37874;53.158;6.766;2022-10-01T09:53:03;20.00;59.60
51815;DHT22;37874;53.158;6.766;2022-10-01T09:55:35;20.10;59.70
51815;DHT22;37874;53.158;6.766;2022-10-01T09:58:19;20.00;59.60
51815;DHT22;37874;53.158;6.766;2022-10-01T10:00:47;20.10;59.60
51815;DHT22;37874;53.158;6.766;2022-10-01T10:03:23;20.10;59.60
51815;DHT22;37874;53.158;6.766;2022-10-01T10:05:49;20.10;59.60
51815;DHT22;37874;53.158;6.766;2022-10-01T10:08:23;20.10;59.60
51815;DHT22;37874;53.158;6.766;2022-10-01T10:10:51;20.10;59.60
51815;DHT22;37874;53.158;6.766;2022-10-01T10:13:29;20.10;59.50
51815;DHT22;37874;53.158;6.766;2022-10-01T10:16:07;20.10;59.50
51815;DHT22;37874;53.158;6.766;2022-10-01T10:18:36;20.10;59.50
51815;DHT22;37874;53.158;6.766;2022-10-01T10:21:14;20.10;59.50
51815;DHT22;37874;53.158;6.766;2022-10-01T10:23:52;20.10;59.50
51815;DHT22;37874;53.158;6.766;2022-10-01T10:26:24;20.10;59.50
51815;DHT22;37874;53.158;6.766;2022-10-01T10:28:53;20.10;59.50
51815;DHT22;37874;53.158;6.766;2022-10-01T10:31:22;20.20;59.50
51815;DHT22;37874;53.158;6.766;2022-10-01T10:36:28;20.20;59.50
51815;DHT22;37874;53.158;6.766;2022-10-01T10:38:54;20.10;59.50
51815;DHT22;37874;53.158;6.766;2022-10-01T10:41:22;20.10;59.50
51815;DHT22;37874;53.158;6.766;2022-10-01T10:44:01;20.10;59.50
51815;DHT22;37874;53.158;6.766;2022-10-01T10:46:36;20.10;59.40
51815;DHT22;37874;53.158;6.766;2022-10-01T10:49:16;20.10;59.40
51815;DHT22;37874;53.158;6.766;2022-10-01T10:54:17;20.10;59.30
51815;DHT22;37874;53.158;6.766;2022-10-01T10:57:33;20.10;59.30
51815;DHT22;37874;53.158;6.766;2022-10-01T10:59:40;20.20;59.30
51815;DHT22;37874;53.158;6.766;2022-10-01T11:02:14;20.20;59.30
51815;DHT22;37874;53.158;6.766;2022-10-01T11:04:42;20.20;59.30
51815;DHT22;37874;53.158;6.766;2022-10-01T11:07:09;20.20;59.30
51815;DHT22;37874;53.158;6.766;2022-10-01T11:20:23;20.30;59.30
51815;DHT22;37874;53.158;6.766;2022-10-01T11:25:41;20.20;59.30
51815;DHT22;37874;53.158;6.766;2022-10-01T11:38:55;20.30;59.30
51815;DHT22;37874;53.158;6.766;2022-10-01T11:41:38;20.30;59.30
51815;DHT22;37874;53.158;6.766;2022-10-01T11:44:34;20.30;59.30
51815;DHT22;37874;53.158;6.766;2022-10-01T11:47:09;20.30;60.90
51815;DHT22;37874;53.158;6.766;2022-10-01T11:50:32;20.30;62.60
51815;DHT22;37874;53.158;6.766;2022-10-01T11:53:11;20.40;63.70
51815;DHT22;37874;53.158;6.766;2022-10-01T11:55:44;20.40;63.30
51815;DHT22;37874;53.158;6.766;2022-10-01T11:58:40;20.30;63.20
51815;DHT22;37874;53.158;6.766;2022-10-01T12:06:21;20.30;64.00
51815;DHT22;37874;53.158;6.766;2022-10-01T12:09:09;20.30;64.20
51815;DHT22;37874;53.158;6.766;2022-10-01T12:11:59;20.20;64.20
51815;DHT22;37874;53.158;6.766;2022-10-01T12:14:51;20.20;64.10
51815;DHT22;37874;53.158;6.766;2022-10-01T12:17:32;20.10;64.30
51815;DHT22;37874;53.158;6.766;2022-10-01T12:20:00;20.10;64.60
51815;DHT22;37874;53.158;6.766;2022-10-01T12:22:30;20.10;64.50
51815;DHT22;37874;53.158;6.766;2022-10-01T12:24:57;20.00;64.60
51815;DHT22;37874;53.158;6.766;2022-10-01T12:30:21;20.00;65.30
51815;DHT22;37874;53.158;6.766;2022-10-01T12:33:03;20.00;64.90
51815;DHT22;37874;53.158;6.766;2022-10-01T12:36:09;20.00;65.10
51815;DHT22;37874;53.158;6.766;2022-10-01T12:56:01;19.90;66.00
51815;DHT22;37874;53.158;6.766;2022-10-01T13:01:42;19.90;66.50
51815;DHT22;37874;53.158;6.766;2022-10-01T13:15:23;19.90;66.50
51815;DHT22;37874;53.158;6.766;2022-10-01T13:26:12;19.80;66.20
51815;DHT22;37874;53.158;6.766;2022-10-01T13:28:57;19.90;66.00
51815;DHT22;37874;53.158;6.766;2022-10-01T13:31:50;19.90;65.90
51815;DHT22;37874;53.158;6.766;2022-10-01T13:34:41;19.90;66.40
51815;DHT22;37874;53.158;6.766;2022-10-01T13:37:33;19.90;66.20
51815;DHT22;37874;53.158;6.766;2022-10-01T13:39:59;19.90;66.20
51815;DHT22;37874;53.158;6.766;2022-10-01T13:42:36;19.80;66.10
51815;DHT22;37874;53.158;6.766;2022-10-01T13:45:05;19.80;66.40
51815;DHT22;37874;53.158;6.766;2022-10-01T13:47:34;19.90;66.90
51815;DHT22;37874;53.158;6.766;2022-10-01T13:50:07;19.90;67.10
51815;DHT22;37874;53.158;6.766;2022-10-01T13:52:42;20.00;66.80
51815;DHT22;37874;53.158;6.766;2022-10-01T13:55:27;19.90;66.30
51815;DHT22;37874;53.158;6.766;2022-10-01T14:00:53;19.90;65.90
51815;DHT22;37874;53.158;6.766;2022-10-01T14:03:38;20.00;65.90
51815;DHT22;37874;53.158;6.766;2022-10-01T14:06:37;20.00;66.10
51815;DHT22;37874;53.158;6.766;2022-10-01T14:09:09;19.90;65.80
51815;DHT22;37874;53.158;6.766;2022-10-01T14:11:40;20.00;65.80
51815;DHT22;37874;53.158;6.766;2022-10-01T14:14:35;19.50;65.60
51815;DHT22;37874;53.158;6.766;2022-10-01T14:17:23;19.90;65.90
51815;DHT22;37874;53.158;6.766;2022-10-01T14:19:50;19.90;65.70
51815;DHT22;37874;53.158;6.766;2022-10-01T14:27:51;19.60;65.60
51815;DHT22;37874;53.158;6.766;2022-10-01T14:30:27;19.90;65.60
51815;DHT22;37874;53.158;6.766;2022-10-01T14:38:27;20.00;65.80
51815;DHT22;37874;53.158;6.766;2022-10-01T14:40:54;20.00;65.40
51815;DHT22;37874;53.158;6.766;2022-10-01T14:43:26;20.00;64.90
51815;DHT22;37874;53.158;6.766;2022-10-01T14:45:56;20.00;65.00
51815;DHT22;37874;53.158;6.766;2022-10-01T14:48:25;20.00;64.80
51815;DHT22;37874;53.158;6.766;2022-10-01T14:50:53;20.00;64.80
51815;DHT22;37874;53.158;6.766;2022-10-01T14:53:23;20.00;64.90
51815;DHT22;37874;53.158;6.766;2022-10-01T14:55:55;20.10;64.80
51815;DHT22;37874;53.158;6.766;2022-10-01T14:58:36;20.20;64.90
51815;DHT22;37874;53.158;6.766;2022-10-01T15:01:04;20.40;65.00
51815;DHT22;37874;53.158;6.766;2022-10-01T15:03:38;20.50;64.30
51815;DHT22;37874;53.158;6.766;2022-10-01T15:06:23;20.60;63.80
51815;DHT22;37874;53.158;6.766;2022-10-01T15:08:52;20.80;63.50
51815;DHT22;37874;53.158;6.766;2022-10-01T15:14:26;21.00;63.20
51815;DHT22;37874;53.158;6.766;2022-10-01T15:32:51;20.70;62.50
51815;DHT22;37874;53.158;6.766;2022-10-01T15:42:06;20.50;62.60
51815;DHT22;37874;53.158;6.766;2022-10-01T15:48:27;20.70;63.10
51815;DHT22;37874;53.158;6.766;2022-10-01T15:54:10;20.60;63.30
51815;DHT22;37874;53.158;6.766;2022-10-01T16:29:23;21.00;62.20
51815;DHT22;37874;53.158;6.766;2022-10-01T16:38:23;21.00;62.10
51815;DHT22;37874;53.158;6.766;2022-10-01T16:40:49;20.90;61.70
51815;DHT22;37874;53.158;6.766;2022-10-01T16:46:42;20.80;61.80
51815;DHT22;37874;53.158;6.766;2022-10-01T16:49:48;20.80;61.50
51815;DHT22;37874;53.158;6.766;2022-10-01T16:55:29;20.80;61.90
51815;DHT22;37874;53.158;6.766;2022-10-01T17:07:44;20.60;62.60
51815;DHT22;37874;53.158;6.766;2022-10-01T17:10:30;20.60;62.70
51815;DHT22;37874;53.158;6.766;2022-10-01T17:13:00;20.60;62.80
51815;DHT22;37874;53.158;6.766;2022-10-01T17:15:27;20.60;63.00
51815;DHT22;37874;53.158;6.766;2022-10-01T17:17:54;20.60;62.90
51815;DHT22;37874;53.158;6.766;2022-10-01T17:20:22;20.60;63.00
51815;DHT22;37874;53.158;6.766;2022-10-01T17:26:11;20.50;62.90
51815;DHT22;37874;53.158;6.766;2022-10-01T17:28:55;20.50;62.80
51815;DHT22;37874;53.158;6.766;2022-10-01T17:35:02;20.50;62.90
51815;DHT22;37874;53.158;6.766;2022-10-01T17:40:50;20.50;62.80
51815;DHT22;37874;53.158;6.766;2022-10-01T17:52:46;20.40;62.70
51815;DHT22;37874;53.158;6.766;2022-10-01T18:16:42;20.40;62.50
51815;DHT22;37874;53.158;6.766;2022-10-01T18:19:29;20.40;62.40
51815;DHT22;37874;53.158;6.766;2022-10-01T18:22:14;20.40;62.40
51815;DHT22;37874;53.158;6.766;2022-10-01T18:25:17;20.40;62.10
51815;DHT22;37874;53.158;6.766;2022-10-01T18:28:20;20.40;62.10
51815;DHT22;37874;53.158;6.766;2022-10-01T18:31:16;20.40;61.80
51815;DHT22;37874;53.158;6.766;2022-10-01T18:43:06;20.40;62.00
51815;DHT22;37874;53.158;6.766;2022-10-01T19:08:25;20.30;61.50
51815;DHT22;37874;53.158;6.766;2022-10-01T19:23:05;20.30;61.30
51815;DHT22;37874;53.158;6.766;2022-10-01T19:33:42;20.20;61.00
51815;DHT22;37874;53.158;6.766;2022-10-01T19:36:17;20.20;61.10
51815;DHT22;37874;53.158;6.766;2022-10-01T19:38:49;20.20;61.10
51815;DHT22;37874;53.158;6.766;2022-10-01T19:41:25;20.30;60.90
51815;DHT22;37874;53.158;6.766;2022-10-01T19:43:59;20.20;61.00
51815;DHT22;37874;53.158;6.766;2022-10-01T19:46:41;20.20;60.80
51815;DHT22;37874;53.158;6.766;2022-10-01T19:49:35;20.20;60.90
51815;DHT22;37874;53.158;6.766;2022-10-01T19:52:10;20.20;60.90
51815;DHT22;37874;53.158;6.766;2022-10-01T19:54:38;20.20;60.90
51815;DHT22;37874;53.158;6.766;2022-10-01T19:57:21;20.20;61.00
51815;DHT22;37874;53.158;6.766;2022-10-01T19:59:49;20.20;61.00
51815;DHT22;37874;53.158;6.766;2022-10-01T20:05:11;20.20;61.40
51815;DHT22;37874;53.158;6.766;2022-10-01T20:07:58;20.20;61.40
51815;DHT22;37874;53.158;6.766;2022-10-01T20:10:44;20.20;61.60
51815;DHT22;37874;53.158;6.766;2022-10-01T20:18:40;20.20;61.30
51815;DHT22;37874;53.158;6.766;2022-10-01T20:29:36;20.20;60.60
51815;DHT22;37874;53.158;6.766;2022-10-01T20:40:39;20.20;60.60
51815;DHT22;37874;53.158;6.766;2022-10-01T20:43:14;20.20;60.70
51815;DHT22;37874;53.158;6.766;2022-10-01T20:45:44;20.20;60.70
51815;DHT22;37874;53.158;6.766;2022-10-01T20:48:28;20.20;60.60
51815;DHT22;37874;53.158;6.766;2022-10-01T20:51:00;20.10;60.60
51815;DHT22;37874;53.158;6.766;2022-10-01T20:53:33;20.10;60.70
51815;DHT22;37874;53.158;6.766;2022-10-01T20:56:20;20.20;60.60
51815;DHT22;37874;53.158;6.766;2022-10-01T21:01:29;20.10;60.50
51815;DHT22;37874;53.158;6.766;2022-10-01T21:04:16;20.10;60.60
51815;DHT22;37874;53.158;6.766;2022-10-01T21:06:49;20.20;61.00
51815;DHT22;37874;53.158;6.766;2022-10-01T21:09:25;20.10;61.10
51815;DHT22;37874;53.158;6.766;2022-10-01T21:11:54;20.10;61.30
51815;DHT22;37874;53.158;6.766;2022-10-01T21:14:24;20.20;61.30
51815;DHT22;37874;53.158;6.766;2022-10-01T21:17:39;20.20;61.30
51815;DHT22;37874;53.158;6.766;2022-10-01T21:22:53;20.20;61.10
51815;DHT22;37874;53.158;6.766;2022-10-01T21:28:16;20.20;60.80
51815;DHT22;37874;53.158;6.766;2022-10-01T21:35:10;20.20;61.00
51815;DHT22;37874;53.158;6.766;2022-10-01T21:37:09;20.20;61.00
51815;DHT22;37874;53.158;6.766;2022-10-01T21:42:31;20.20;61.00
51815;DHT22;37874;53.158;6.766;2022-10-01T21:51:09;20.20;60.80
51815;DHT22;37874;53.158;6.766;2022-10-01T21:59:34;20.20;60.50
51815;DHT22;37874;53.158;6.766;2022-10-01T22:05:21;20.20;60.10
51815;DHT22;37874;53.158;6.766;2022-10-01T22:08:14;20.20;60.00
51815;DHT22;37874;53.158;6.766;2022-10-01T22:10:49;20.20;60.10
51815;DHT22;37874;53.158;6.766;2022-10-01T22:13:26;20.20;60.10
51815;DHT22;37874;53.158;6.766;2022-10-01T22:15:55;20.20;60.00
51815;DHT22;37874;53.158;6.766;2022-10-01T22:18:40;20.20;60.80
51815;DHT22;37874;53.158;6.766;2022-10-01T22:21:11;20.20;60.20
51815;DHT22;37874;53.158;6.766;2022-10-01T22:23:40;20.20;60.20
51815;DHT22;37874;53.158;6.766;2022-10-01T22:26:16;20.20;60.20
51815;DHT22;37874;53.158;6.766;2022-10-01T22:28:49;20.20;60.50
51815;DHT22;37874;53.158;6.766;2022-10-01T22:31:20;20.40;60.50
51815;DHT22;37874;53.158;6.766;2022-10-01T22:34:09;20.20;60.50
51815;DHT22;37874;53.158;6.766;2022-10-01T22:36:51;20.20;60.60
51815;DHT22;37874;53.158;6.766;2022-10-01T22:39:32;20.20;60.50
51815;DHT22;37874;53.158;6.766;2022-10-01T22:44:27;20.20;60.50
51815;DHT22;37874;53.158;6.766;2022-10-01T23:00:22;20.20;59.80
51815;DHT22;37874;53.158;6.766;2022-10-01T23:11:37;20.10;59.90
51815;DHT22;37874;53.158;6.766;2022-10-01T23:16:57;20.10;60.00
51815;DHT22;37874;53.158;6.766;2022-10-01T23:20:03;20.10;60.10
51815;DHT22;37874;53.158;6.766;2022-10-01T23:23:08;20.10;60.20
51815;DHT22;37874;53.158;6.766;2022-10-01T23:25:47;20.10;60.20
51815;DHT22;37874;53.158;6.766;2022-10-01T23:28:45;20.10;60.40
51815;DHT22;37874;53.158;6.766;2022-10-01T23:41:54;20.10;60.20
51815;DHT22;37874;53.158;6.766;2022-10-01T23:44:43;20.10;60.00
51815;DHT22;37874;53.158;6.766;2022-10-01T23:47:30;20.10;60.00
51815;DHT22;37874;53.158;6.766;2022-10-01T23:50:01;20.10;60.10
51815;DHT22;37874;53.158;6.766;2022-10-01T23:53:12;20.10;60.10
51815;DHT22;37874;53.158;6.766;2022-10-01T23:55:54;20.10;60.10
51815;DHT22;37874;53.158;6.766;2022-10-01T23:58:51;20.10;60.10
